createdAt,value
2019-05-23T00:02:12.932Z,5.63
2019-05-23T00:05:24.000Z,5.30
2019-05-23T00:08:18.457Z,5.87
2019-05-23T00:10:56.022Z,6.87
2019-05-23T00:13:57.721Z,6.77
2019-05-23T00:16:28.769Z,6.83
2019-05-23T00:19:00.987Z,6.17
2019-05-23T00:21:32.987Z,6.20
2019-05-23T00:24:05.196Z,6.73
2019-05-23T00:26:36.126Z,6.50
2019-05-23T00:29:10.467Z,6.80
2019-05-23T00:31:46.116Z,6.87
2019-05-23T00:34:16.812Z,6.53
2019-05-23T00:36:48.509Z,6.67
2019-05-23T00:39:18.648Z,6.67
2019-05-23T00:41:50.756Z,6.80
2019-05-23T00:44:21.157Z,6.73
2019-05-23T00:46:53.467Z,6.97
2019-05-23T00:49:24.787Z,6.73
2019-05-23T00:51:55.296Z,6.80
2019-05-23T00:54:26.065Z,6.93
2019-05-23T00:56:58.701Z,6.40
2019-05-23T00:59:29.737Z,6.80
2019-05-23T01:02:01.228Z,7.03
2019-05-23T01:04:32.125Z,7.70
2019-05-23T01:07:02.778Z,7.03
2019-05-23T01:09:34.522Z,6.30
2019-05-23T01:12:05.482Z,6.77
2019-05-23T01:14:36.211Z,7.10
2019-05-23T01:17:07.299Z,7.43
2019-05-23T01:19:37.843Z,6.90
2019-05-23T01:22:10.084Z,6.93
2019-05-23T01:24:42.082Z,6.60
2019-05-23T01:27:12.982Z,6.20
2019-05-23T01:29:50.135Z,7.10
2019-05-23T01:32:37.608Z,7.10
2019-05-23T01:35:10.063Z,6.50
2019-05-23T01:37:41.356Z,7.27
2019-05-23T01:40:13.583Z,6.90
2019-05-23T01:42:43.703Z,7.00
2019-05-23T01:45:16.560Z,7.37
2019-05-23T01:47:49.337Z,7.00
2019-05-23T01:50:25.330Z,6.40
2019-05-23T01:52:56.112Z,6.90
2019-05-23T01:55:26.336Z,6.60
2019-05-23T01:57:57.259Z,6.43
2019-05-23T02:00:29.176Z,6.17
2019-05-23T02:03:01.094Z,6.70
2019-05-23T02:05:31.976Z,6.60
2019-05-23T02:08:02.286Z,6.53
2019-05-23T02:10:32.605Z,7.10
2019-05-23T02:13:03.935Z,6.90
2019-05-23T02:15:35.095Z,7.90
2019-05-23T02:18:05.900Z,6.90
2019-05-23T02:20:37.174Z,6.83
2019-05-23T02:23:08.106Z,6.40
2019-05-23T02:25:39.868Z,7.47
2019-05-23T02:28:10.161Z,6.70
2019-05-23T02:30:41.279Z,7.17
2019-05-23T02:33:14.614Z,6.80
2019-05-23T02:35:45.230Z,6.73
2019-05-23T02:41:33.903Z,6.83
2019-05-23T02:44:08.959Z,6.57
2019-05-23T02:47:16.207Z,6.77
2019-05-23T02:49:51.143Z,7.20
2019-05-23T02:52:31.463Z,8.30
2019-05-23T02:55:02.407Z,9.43
2019-05-23T02:57:35.232Z,10.30
2019-05-23T03:00:52.093Z,9.27
2019-05-23T03:03:09.282Z,7.43
2019-05-23T03:05:40.061Z,6.47
2019-05-23T03:08:12.788Z,6.13
2019-05-23T03:10:57.772Z,5.77
2019-05-23T03:13:32.461Z,5.83
2019-05-23T03:16:05.324Z,5.53
2019-05-23T03:18:40.417Z,5.50
2019-05-23T03:21:12.335Z,5.13
2019-05-23T03:23:43.662Z,4.53
2019-05-23T03:26:48.200Z,4.90
2019-05-23T03:29:19.148Z,4.40
2019-05-23T03:32:04.623Z,4.60
2019-05-23T03:34:37.550Z,3.90
2019-05-23T03:37:07.971Z,3.90
2019-05-23T03:39:38.446Z,3.73
2019-05-23T03:42:10.775Z,4.03
2019-05-23T03:44:40.912Z,3.80
2019-05-23T03:47:15.931Z,4.17
2019-05-23T03:49:47.769Z,4.20
2019-05-23T03:52:19.148Z,4.40
2019-05-23T03:54:50.391Z,4.13
2019-05-23T03:57:25.305Z,4.67
2019-05-23T03:59:53.072Z,4.00
2019-05-23T04:02:26.227Z,4.07
2019-05-23T04:04:57.376Z,4.13
2019-05-23T04:07:27.713Z,4.03
2019-05-23T04:09:58.319Z,3.57
2019-05-23T04:12:28.528Z,3.70
2019-05-23T04:14:58.838Z,3.70
2019-05-23T04:17:29.452Z,3.73
2019-05-23T04:20:00.252Z,3.57
2019-05-23T04:22:30.652Z,3.13
2019-05-23T04:25:02.378Z,3.03
2019-05-23T04:27:32.606Z,3.47
2019-05-23T04:30:02.757Z,3.47
2019-05-23T04:32:34.871Z,3.10
2019-05-23T04:35:07.168Z,3.33
2019-05-23T04:37:37.320Z,3.23
2019-05-23T04:40:10.182Z,3.40
2019-05-23T04:42:40.531Z,3.10
2019-05-23T04:45:12.141Z,2.80
2019-05-23T04:47:42.462Z,2.60
2019-05-23T04:50:16.293Z,2.97
2019-05-23T04:52:48.277Z,3.20
2019-05-23T04:55:18.569Z,3.10
2019-05-23T04:57:48.695Z,2.70
2019-05-23T05:00:20.831Z,2.70
2019-05-23T05:02:51.355Z,2.60
2019-05-23T05:05:23.773Z,2.90
2019-05-23T05:07:53.925Z,2.70
2019-05-23T05:10:26.084Z,2.60
2019-05-23T05:12:56.666Z,2.67
2019-05-23T05:15:26.912Z,2.70
2019-05-23T05:17:57.109Z,3.00
2019-05-23T05:20:27.928Z,2.97
2019-05-23T05:22:58.179Z,3.37
2019-05-23T05:25:29.867Z,2.80
2019-05-23T05:28:00.652Z,2.73
2019-05-23T05:30:31.758Z,2.73
2019-05-23T05:33:02.082Z,3.50
2019-05-23T05:35:33.677Z,3.10
2019-05-23T05:38:03.822Z,3.20
2019-05-23T05:40:34.179Z,3.10
2019-05-23T05:43:04.649Z,2.93
2019-05-23T05:45:34.819Z,3.20
2019-05-23T05:48:06.485Z,3.30
2019-05-23T05:50:37.056Z,3.27
2019-05-23T05:53:07.286Z,2.60
2019-05-23T05:55:37.414Z,2.60
2019-05-23T05:58:07.602Z,2.50
2019-05-23T06:00:42.701Z,2.70
2019-05-23T06:03:12.813Z,2.87
2019-05-23T06:06:01.969Z,2.80
2019-05-23T06:08:34.402Z,2.70
2019-05-23T06:11:04.848Z,2.70
2019-05-23T06:13:35.980Z,2.67
2019-05-23T06:16:06.613Z,2.50
2019-05-23T06:18:37.012Z,2.20
2019-05-23T06:21:07.951Z,2.50
2019-05-23T06:23:38.483Z,2.67
2019-05-23T06:26:08.608Z,2.73
2019-05-23T06:28:40.807Z,2.60
2019-05-23T06:31:11.545Z,2.20
2019-05-23T06:33:41.779Z,2.10
2019-05-23T06:36:13.417Z,2.47
2019-05-23T06:38:44.208Z,2.30
2019-05-23T06:41:14.831Z,2.17
2019-05-23T06:43:46.566Z,2.03
2019-05-23T06:46:16.941Z,2.30
2019-05-23T06:48:47.093Z,2.00
2019-05-23T06:51:17.545Z,2.50
2019-05-23T06:53:47.785Z,2.20
2019-05-23T06:56:18.092Z,2.40
2019-05-23T06:58:48.307Z,1.93
2019-05-23T07:01:18.541Z,2.27
2019-05-23T07:03:49.680Z,1.80
2019-05-23T07:06:22.730Z,2.00
2019-05-23T07:08:54.407Z,2.17
2019-05-23T07:11:25.432Z,2.00
2019-05-23T07:13:56.149Z,2.07
2019-05-23T07:16:26.295Z,1.73
2019-05-23T07:18:56.407Z,2.10
2019-05-23T07:21:27.759Z,2.00
2019-05-23T07:23:58.080Z,1.73
2019-05-23T07:26:28.681Z,1.83
2019-05-23T07:28:58.848Z,2.00
2019-05-23T07:31:28.970Z,2.00
2019-05-23T07:34:02.183Z,1.70
2019-05-23T07:36:31.647Z,1.60
2019-05-23T07:39:01.778Z,1.73
2019-05-23T07:41:32.872Z,2.10
2019-05-23T07:44:04.242Z,1.70
2019-05-23T07:46:34.663Z,1.77
2019-05-23T07:49:04.893Z,1.93
2019-05-23T07:51:35.324Z,1.93
2019-05-23T07:54:22.912Z,1.80
2019-05-23T07:56:53.880Z,1.70
2019-05-23T07:59:24.107Z,1.50
2019-05-23T08:02:05.012Z,1.73
2019-05-23T08:04:35.202Z,1.80
2019-05-23T08:07:06.239Z,1.80
2019-05-23T08:09:36.601Z,1.70
2019-05-23T08:12:06.953Z,1.53
2019-05-23T08:14:37.150Z,1.63
2019-05-23T08:17:07.936Z,1.70
2019-05-23T08:19:49.092Z,1.50
2019-05-23T08:22:09.927Z,1.33
2019-05-23T08:24:40.113Z,1.70
2019-05-23T08:27:10.911Z,1.37
2019-05-23T08:29:41.333Z,1.40
2019-05-23T08:32:13.046Z,1.37
2019-05-23T08:34:43.496Z,1.60
2019-05-23T08:37:14.186Z,1.60
2019-05-23T08:39:45.318Z,1.33
2019-05-23T08:42:15.815Z,1.43
2019-05-23T08:44:46.726Z,1.80
2019-05-23T08:47:17.547Z,1.77
2019-05-23T08:49:47.869Z,1.63
2019-05-23T08:52:18.019Z,1.50
2019-05-23T08:54:49.246Z,1.40
2019-05-23T08:57:19.882Z,1.40
2019-05-23T08:59:50.001Z,1.40
2019-05-23T09:02:20.564Z,1.20
2019-05-23T09:05:04.258Z,2.20
2019-05-23T09:07:23.120Z,1.70
2019-05-23T09:09:54.078Z,1.50
2019-05-23T09:12:24.439Z,1.30
2019-05-23T09:14:55.248Z,1.47
2019-05-23T09:17:25.390Z,1.30
2019-05-23T09:19:55.498Z,1.10
2019-05-23T09:22:25.640Z,1.60
2019-05-23T09:24:55.761Z,1.33
2019-05-23T09:27:26.320Z,1.60
2019-05-23T09:29:56.529Z,1.60
2019-05-23T09:32:26.857Z,1.40
2019-05-23T09:34:57.221Z,1.77
2019-05-23T09:37:27.499Z,1.43
2019-05-23T09:39:58.354Z,2.40
2019-05-23T09:42:28.612Z,1.57
2019-05-23T09:44:58.748Z,1.50
2019-05-23T09:47:29.074Z,1.50
2019-05-23T09:49:59.431Z,1.53
2019-05-23T09:52:30.255Z,1.70
2019-05-23T09:55:00.458Z,1.27
2019-05-23T09:57:30.691Z,1.53
2019-05-23T10:00:00.896Z,1.63
2019-05-23T10:02:32.672Z,1.50
2019-05-23T10:05:02.811Z,1.47
2019-05-23T10:07:32.947Z,1.40
2019-05-23T10:10:03.160Z,1.30
2019-05-23T10:12:33.294Z,1.23
2019-05-23T10:15:03.431Z,1.67
2019-05-23T10:17:33.609Z,1.20
2019-05-23T10:20:04.566Z,1.27
2019-05-23T10:22:34.696Z,1.10
2019-05-23T10:25:06.352Z,1.50
2019-05-23T10:27:36.498Z,1.40
2019-05-23T10:30:08.294Z,1.20
2019-05-23T10:32:39.396Z,2.80
2019-05-23T10:35:10.433Z,1.20
2019-05-23T10:37:40.560Z,1.10
2019-05-23T10:40:11.462Z,1.00
2019-05-23T10:42:41.593Z,1.20
2019-05-23T10:45:12.418Z,1.10
2019-05-23T10:47:42.543Z,1.10
2019-05-23T10:50:12.993Z,0.90
2019-05-23T10:52:43.315Z,1.10
2019-05-23T10:55:14.052Z,1.00
2019-05-23T10:57:44.490Z,1.20
2019-05-23T11:00:17.564Z,0.80
2019-05-23T11:02:48.203Z,1.03
2019-05-23T11:05:18.322Z,0.93
2019-05-23T11:07:48.701Z,1.40
2019-05-23T11:10:21.374Z,1.20
2019-05-23T11:12:51.505Z,1.10
2019-05-23T11:15:21.833Z,1.10
2019-05-23T11:17:53.917Z,1.07
2019-05-23T11:20:24.451Z,0.93
2019-05-23T11:22:54.578Z,1.30
2019-05-23T11:25:26.277Z,1.00
2019-05-23T11:27:57.077Z,0.90
2019-05-23T11:30:50.166Z,0.90
2019-05-23T11:33:20.571Z,0.87
2019-05-23T11:35:51.318Z,1.10
2019-05-23T11:38:23.582Z,1.10
2019-05-23T11:40:54.003Z,0.97
2019-05-23T11:43:24.147Z,1.00
2019-05-23T11:46:10.209Z,1.00
2019-05-23T11:48:40.563Z,0.70
2019-05-23T11:51:10.760Z,0.90
2019-05-23T11:53:40.984Z,1.20
2019-05-23T11:56:11.196Z,1.50
2019-05-23T11:58:41.633Z,0.83
2019-05-23T12:01:20.798Z,1.00
2019-05-23T12:03:54.433Z,1.07
2019-05-23T12:06:26.690Z,1.00
2019-05-23T12:08:57.149Z,1.00
2019-05-23T12:11:27.341Z,1.00
2019-05-23T12:13:57.477Z,0.87
2019-05-23T12:16:28.020Z,1.00
2019-05-23T12:18:58.199Z,0.97
2019-05-23T12:21:28.888Z,1.03
2019-05-23T12:23:59.249Z,1.10
2019-05-23T12:26:29.781Z,1.10
2019-05-23T12:29:00.247Z,1.00
2019-05-23T12:31:30.427Z,1.23
2019-05-23T12:34:00.735Z,1.00
2019-05-23T12:36:31.223Z,1.30
2019-05-23T12:39:02.610Z,1.20
2019-05-23T12:41:33.842Z,0.87
2019-05-23T12:44:03.992Z,1.00
2019-05-23T12:46:34.116Z,1.00
2019-05-23T12:49:29.317Z,1.00
2019-05-23T12:52:01.369Z,1.20
2019-05-23T12:54:32.747Z,1.40
2019-05-23T12:57:04.442Z,0.90
2019-05-23T12:59:35.107Z,0.77
2019-05-23T13:02:08.609Z,0.60
2019-05-23T13:04:39.107Z,0.80
2019-05-23T13:07:10.162Z,0.80
2019-05-23T13:09:40.600Z,1.10
2019-05-23T13:12:10.731Z,1.00
2019-05-23T13:14:40.898Z,0.90
2019-05-23T13:17:11.062Z,0.90
2019-05-23T13:19:41.283Z,1.53
2019-05-23T13:22:12.000Z,1.10
2019-05-23T13:24:52.887Z,1.00
2019-05-23T13:27:14.425Z,1.07
2019-05-23T13:29:44.913Z,0.90
2019-05-23T13:32:15.361Z,0.90
2019-05-23T13:34:45.832Z,1.03
2019-05-23T13:37:17.378Z,1.00
2019-05-23T13:39:47.792Z,1.10
2019-05-23T13:42:17.933Z,1.00
2019-05-23T13:44:48.940Z,1.27
2019-05-23T13:47:20.063Z,0.80
2019-05-23T13:49:50.553Z,1.10
2019-05-23T13:52:20.686Z,1.03
2019-05-23T13:54:50.825Z,0.90
2019-05-23T13:57:22.419Z,1.10
2019-05-23T13:59:52.659Z,1.07
2019-05-23T14:02:23.055Z,0.97
2019-05-23T14:04:53.499Z,1.00
2019-05-23T14:07:23.936Z,1.20
2019-05-23T14:09:54.726Z,1.40
2019-05-23T14:12:25.905Z,1.10
2019-05-23T14:14:56.567Z,1.30
2019-05-23T14:17:32.331Z,2.37
2019-05-23T14:20:02.481Z,1.60
2019-05-23T14:22:36.841Z,0.93
2019-05-23T14:25:07.685Z,1.17
2019-05-23T14:27:58.381Z,1.00
2019-05-23T14:31:04.237Z,1.00
2019-05-23T14:33:41.416Z,1.00
2019-05-23T14:36:31.458Z,1.10
2019-05-23T14:39:00.545Z,0.90
2019-05-23T14:41:45.405Z,1.07
2019-05-23T14:44:14.598Z,1.00
2019-05-23T14:47:20.548Z,1.00
2019-05-23T14:49:59.962Z,2.47
2019-05-23T14:52:36.731Z,2.73
2019-05-23T14:55:10.621Z,5.70
2019-05-23T14:57:41.293Z,2.37
2019-05-23T15:00:12.532Z,19.03
2019-05-23T15:02:42.990Z,5.70
2019-05-23T15:05:13.730Z,3.17
2019-05-23T15:07:44.657Z,2.17
2019-05-23T15:10:15.763Z,1.40
2019-05-23T15:12:45.969Z,1.10
2019-05-23T15:15:17.376Z,1.20
2019-05-23T15:17:47.600Z,1.37
2019-05-23T15:20:17.954Z,1.47
2019-05-23T15:22:48.108Z,1.50
2019-05-23T15:25:20.291Z,1.20
2019-05-23T15:27:50.533Z,1.00
2019-05-23T15:30:20.971Z,1.70
2019-05-23T15:32:51.111Z,2.33
2019-05-23T15:35:21.344Z,1.40
2019-05-23T15:37:51.596Z,1.33
2019-05-23T15:40:21.733Z,1.33
2019-05-23T15:42:51.872Z,1.07
2019-05-23T15:45:22.162Z,1.37
2019-05-23T15:47:53.272Z,1.30
2019-05-23T15:50:27.100Z,1.30
2019-05-23T15:53:06.848Z,1.30
2019-05-23T15:55:54.490Z,1.23
2019-05-23T15:58:31.401Z,1.10
2019-05-23T16:01:21.195Z,0.90
2019-05-23T16:03:59.489Z,1.10
2019-05-23T16:06:30.751Z,1.20
2019-05-23T16:09:01.240Z,0.90
2019-05-23T16:11:32.336Z,1.23
2019-05-23T16:14:02.492Z,1.20
2019-05-23T16:16:32.612Z,1.30
2019-05-23T16:19:02.809Z,1.10
2019-05-23T16:21:33.261Z,1.10
2019-05-23T16:24:04.598Z,1.10
2019-05-23T16:26:34.796Z,1.00
2019-05-23T16:29:05.300Z,1.10
2019-05-23T16:31:35.515Z,0.90
2019-05-23T16:34:05.771Z,0.90
2019-05-23T16:36:35.939Z,0.80
2019-05-23T16:39:08.653Z,1.07
2019-05-23T16:41:38.912Z,0.87
2019-05-23T16:44:09.244Z,0.80
2019-05-23T16:46:39.531Z,0.80
2019-05-23T16:49:09.655Z,0.80
2019-05-23T16:51:39.784Z,1.10
2019-05-23T16:54:10.197Z,0.90
2019-05-23T16:56:58.354Z,0.87
2019-05-23T16:59:36.225Z,0.80
2019-05-23T17:02:28.301Z,0.87
2019-05-23T17:05:16.259Z,0.80
2019-05-23T17:08:04.395Z,0.90
2019-05-23T17:10:59.991Z,0.90
2019-05-23T17:13:34.129Z,0.80
2019-05-23T17:16:13.470Z,0.70
2019-05-23T17:19:01.725Z,1.00
2019-05-23T17:21:56.157Z,0.80
2019-05-23T17:24:32.076Z,0.83
2019-05-23T17:27:10.722Z,0.80
2019-05-23T17:29:58.007Z,0.80
2019-05-23T17:32:31.578Z,1.00
2019-05-23T17:35:01.806Z,0.90
2019-05-23T17:37:32.033Z,1.00
2019-05-23T17:40:02.152Z,0.73
2019-05-23T17:42:33.837Z,0.80
2019-05-23T17:45:03.968Z,1.03
2019-05-23T17:47:35.854Z,0.80
2019-05-23T17:50:06.513Z,1.07
2019-05-23T17:52:36.635Z,0.80
2019-05-23T17:55:07.502Z,1.03
2019-05-23T17:57:37.741Z,1.10
2019-05-23T18:00:08.924Z,0.80
2019-05-23T18:02:39.100Z,0.80
2019-05-23T18:05:10.251Z,0.67
2019-05-23T18:07:40.420Z,0.87
2019-05-23T18:10:12.232Z,0.90
2019-05-23T18:12:42.474Z,0.90
2019-05-23T18:15:13.603Z,0.90
2019-05-23T18:17:43.707Z,1.00
2019-05-23T18:20:14.388Z,1.03
2019-05-23T18:22:44.553Z,1.10
2019-05-23T18:25:15.534Z,1.10
2019-05-23T18:27:48.328Z,1.00
2019-05-23T18:30:34.824Z,0.77
2019-05-23T18:33:06.867Z,0.90
2019-05-23T18:35:37.409Z,1.00
2019-05-23T18:38:07.662Z,1.10
2019-05-23T18:40:38.053Z,1.17
2019-05-23T18:43:08.500Z,1.13
2019-05-23T18:45:39.564Z,1.03
2019-05-23T18:48:09.885Z,1.00
2019-05-23T18:50:41.056Z,1.00
2019-05-23T18:53:12.968Z,1.00
2019-05-23T18:55:43.604Z,1.10
2019-05-23T18:58:13.849Z,1.10
2019-05-23T19:01:06.889Z,1.00
2019-05-23T19:03:38.176Z,1.10
2019-05-23T19:06:08.605Z,1.20
2019-05-23T19:08:38.959Z,1.30
2019-05-23T19:11:20.170Z,1.17
2019-05-23T19:13:41.223Z,1.40
2019-05-23T19:16:11.693Z,1.37
2019-05-23T19:18:42.288Z,1.30
2019-05-23T19:21:13.111Z,1.23
2019-05-23T19:23:43.907Z,1.40
2019-05-23T19:26:14.903Z,1.20
2019-05-23T19:28:45.745Z,1.27
2019-05-23T19:31:16.219Z,1.27
2019-05-23T19:33:48.863Z,1.50
2019-05-23T19:36:19.062Z,1.50
2019-05-23T19:38:49.773Z,1.20
2019-05-23T19:41:34.442Z,1.47
2019-05-23T19:43:52.400Z,1.20
2019-05-23T19:46:22.662Z,1.30
2019-05-23T19:48:54.393Z,1.30
2019-05-23T19:51:24.546Z,1.50
2019-05-23T19:53:54.897Z,1.57
2019-05-23T19:56:25.295Z,1.20
2019-05-23T19:58:55.787Z,1.50
2019-05-23T20:01:31.849Z,1.60
2019-05-23T20:03:59.717Z,1.40
2019-05-23T20:06:32.902Z,1.57
2019-05-23T20:09:04.253Z,1.60
2019-05-23T20:11:34.941Z,1.53
2019-05-23T20:14:05.173Z,1.30
2019-05-23T20:16:35.804Z,1.40
2019-05-23T20:19:06.574Z,1.50
2019-05-23T20:21:36.690Z,1.50
2019-05-23T20:24:06.835Z,1.20
2019-05-23T20:26:37.074Z,1.57
2019-05-23T20:29:07.232Z,1.47
2019-05-23T20:31:37.553Z,1.40
2019-05-23T20:34:08.578Z,1.27
2019-05-23T20:36:38.707Z,1.60
2019-05-23T20:39:08.851Z,1.40
2019-05-23T20:41:40.022Z,1.27
2019-05-23T20:44:10.162Z,1.40
2019-05-23T20:46:40.414Z,1.47
2019-05-23T20:49:10.675Z,1.77
2019-05-23T20:51:41.064Z,1.80
2019-05-23T20:54:11.224Z,2.03
2019-05-23T20:56:41.348Z,1.80
2019-05-23T20:59:11.504Z,1.50
2019-05-23T21:01:42.535Z,1.80
2019-05-23T21:04:12.829Z,1.50
2019-05-23T21:06:42.964Z,1.40
2019-05-23T21:09:15.748Z,1.60
2019-05-23T21:11:45.140Z,1.60
2019-05-23T21:14:15.793Z,1.50
2019-05-23T21:16:45.984Z,1.37
2019-05-23T21:19:17.402Z,1.47
2019-05-23T21:21:47.541Z,1.50
2019-05-23T21:24:17.681Z,1.77
2019-05-23T21:26:48.800Z,1.57
2019-05-23T21:29:18.907Z,1.60
2019-05-23T21:31:49.043Z,1.53
2019-05-23T21:34:22.092Z,1.47
2019-05-23T21:36:50.985Z,1.60
2019-05-23T21:39:21.353Z,1.37
2019-05-23T21:41:51.492Z,1.40
2019-05-23T21:44:21.730Z,1.43
2019-05-23T21:46:53.270Z,1.50
2019-05-23T21:49:23.490Z,1.50
2019-05-23T21:51:53.851Z,1.70
2019-05-23T21:54:24.187Z,1.43
2019-05-23T21:56:55.919Z,1.40
2019-05-23T21:59:26.069Z,1.50
2019-05-23T22:02:06.254Z,1.50
2019-05-23T22:04:41.285Z,1.60
2019-05-23T22:07:11.584Z,1.80
2019-05-23T22:09:41.757Z,1.70
2019-05-23T22:12:15.283Z,1.50
2019-05-23T22:14:46.584Z,1.70
2019-05-23T22:17:17.792Z,1.67
2019-05-23T22:19:48.884Z,1.50
2019-05-23T22:22:19.026Z,1.70
2019-05-23T22:24:49.218Z,1.60
2019-05-23T22:27:20.400Z,1.77
2019-05-23T22:29:50.539Z,1.57
2019-05-23T22:32:21.345Z,1.23
2019-05-23T22:34:56.883Z,1.50
2019-05-23T22:37:28.490Z,1.60
2019-05-23T22:39:58.613Z,1.40
2019-05-23T22:42:29.805Z,1.60
2019-05-23T22:44:59.935Z,1.30
2019-05-23T22:47:30.105Z,1.60
2019-05-23T22:50:00.247Z,1.40
2019-05-23T22:52:30.522Z,1.50
2019-05-23T22:55:00.651Z,1.70
2019-05-23T22:57:30.837Z,1.50
2019-05-23T23:00:00.973Z,1.50
2019-05-23T23:02:31.207Z,1.57
2019-05-23T23:05:01.355Z,1.53
2019-05-23T23:07:32.960Z,1.70
2019-05-23T23:10:03.046Z,2.17
2019-05-23T23:12:33.274Z,1.50
2019-05-23T23:15:03.422Z,1.60
2019-05-23T23:17:33.614Z,1.60
2019-05-23T23:20:04.000Z,1.50
2019-05-23T23:22:34.125Z,1.77
2019-05-23T23:25:04.471Z,1.70
2019-05-23T23:27:34.695Z,1.80
2019-05-23T23:30:05.540Z,1.57
2019-05-23T23:32:35.676Z,2.00
2019-05-23T23:35:06.067Z,1.57
2019-05-23T23:37:36.203Z,1.50
2019-05-23T23:40:07.087Z,2.00
2019-05-23T23:42:37.201Z,1.70
2019-05-23T23:45:25.717Z,1.90
2019-05-23T23:48:13.689Z,1.70
2019-05-23T23:51:01.481Z,1.70
2019-05-23T23:53:49.486Z,1.70
2019-05-23T23:56:37.336Z,1.70
2019-05-23T23:59:06.523Z,1.60
